Terminal Aerodrome Forecast
Issued by NWS Quad Cities IA IL

Home | Current Version | Previous Version | Text Only | Print | Product List | Glossary On
Versions: 1 2 3 4 5 6 7 8 9 10 11 12 13 14 15 16 17 18 19 20
000
FTUS43 KDVN 212300
TAFMLI
TAF
KMLI 212337Z 2200/2224 18005KT P6SM VCSH SCT070
     FM220500 22004KT 6SM BR VCTS BKN040CB
     FM221000 24004KT 5SM BR BKN035
     FM221400 24007KT P6SM BKN120=

USA.gov is the U.S. government's official web portal to all federal, state and local government web resources and services.